sensor_id;sensor_type;location;lat;lon;timestamp;temperature;humidity
52030;DHT22;38043;53.224;6.580;2023-04-24T00:00:55;10.70;99.90
52030;DHT22;38043;53.224;6.580;2023-04-24T00:03:25;10.70;99.90
52030;DHT22;38043;53.224;6.580;2023-04-24T00:05:51;10.80;99.90
52030;DHT22;38043;53.224;6.580;2023-04-24T00:08:17;10.70;99.90
52030;DHT22;38043;53.224;6.580;2023-04-24T00:10:43;10.70;99.90
52030;DHT22;38043;53.224;6.580;2023-04-24T00:13:09;10.80;99.90
52030;DHT22;38043;53.224;6.580;2023-04-24T00:15:34;10.70;99.90
52030;DHT22;38043;53.224;6.580;2023-04-24T00:18:00;10.80;99.90
52030;DHT22;38043;53.224;6.580;2023-04-24T00:20:26;10.80;99.90
52030;DHT22;38043;53.224;6.580;2023-04-24T00:22:53;10.80;99.90
52030;DHT22;38043;53.224;6.580;2023-04-24T00:25:19;10.80;99.90
52030;DHT22;38043;53.224;6.580;2023-04-24T00:27:44;10.80;99.90
52030;DHT22;38043;53.224;6.580;2023-04-24T00:30:10;10.80;99.90
52030;DHT22;38043;53.224;6.580;2023-04-24T00:32:35;10.70;99.90
52030;DHT22;38043;53.224;6.580;2023-04-24T00:35:01;10.70;99.90
52030;DHT22;38043;53.224;6.580;2023-04-24T00:37:27;10.70;99.90
52030;DHT22;38043;53.224;6.580;2023-04-24T00:39:52;10.70;99.90
52030;DHT22;38043;53.224;6.580;2023-04-24T00:42:18;10.60;99.90
52030;DHT22;38043;53.224;6.580;2023-04-24T00:44:43;10.60;99.90
52030;DHT22;38043;53.224;6.580;2023-04-24T00:47:09;10.50;99.90
52030;DHT22;38043;53.224;6.580;2023-04-24T00:49:35;10.50;99.90
52030;DHT22;38043;53.224;6.580;2023-04-24T00:52:01;10.50;99.90
52030;DHT22;38043;53.224;6.580;2023-04-24T00:54:27;10.40;99.90
52030;DHT22;38043;53.224;6.580;2023-04-24T00:56:52;10.40;99.90
52030;DHT22;38043;53.224;6.580;2023-04-24T00:59:18;10.40;99.90
52030;DHT22;38043;53.224;6.580;2023-04-24T01:01:44;10.30;99.90
52030;DHT22;38043;53.224;6.580;2023-04-24T01:04:10;10.30;99.90
52030;DHT22;38043;53.224;6.580;2023-04-24T01:06:36;10.30;99.90
52030;DHT22;38043;53.224;6.580;2023-04-24T01:09:03;10.20;99.90
52030;DHT22;38043;53.224;6.580;2023-04-24T01:11:29;10.30;99.90
52030;DHT22;38043;53.224;6.580;2023-04-24T01:13:55;10.20;99.90
52030;DHT22;38043;53.224;6.580;2023-04-24T01:16:21;10.20;99.90
52030;DHT22;38043;53.224;6.580;2023-04-24T01:18:47;10.20;99.90
52030;DHT22;38043;53.224;6.580;2023-04-24T01:21:13;10.10;99.90
52030;DHT22;38043;53.224;6.580;2023-04-24T01:23:39;10.20;99.90
52030;DHT22;38043;53.224;6.580;2023-04-24T01:26:05;10.20;99.90
52030;DHT22;38043;53.224;6.580;2023-04-24T01:28:31;10.10;99.90
52030;DHT22;38043;53.224;6.580;2023-04-24T01:30:56;10.10;99.90
52030;DHT22;38043;53.224;6.580;2023-04-24T01:33:22;10.10;99.90
52030;DHT22;38043;53.224;6.580;2023-04-24T01:35:48;10.10;99.90
52030;DHT22;38043;53.224;6.580;2023-04-24T01:38:14;10.20;99.90
52030;DHT22;38043;53.224;6.580;2023-04-24T01:40:39;10.10;99.90
52030;DHT22;38043;53.224;6.580;2023-04-24T01:43:05;10.10;99.90
52030;DHT22;38043;53.224;6.580;2023-04-24T01:45:31;10.20;99.90
52030;DHT22;38043;53.224;6.580;2023-04-24T01:47:56;10.10;99.90
52030;DHT22;38043;53.224;6.580;2023-04-24T01:50:22;10.10;99.90
52030;DHT22;38043;53.224;6.580;2023-04-24T01:52:48;10.10;99.90
52030;DHT22;38043;53.224;6.580;2023-04-24T01:55:13;10.10;99.90
52030;DHT22;38043;53.224;6.580;2023-04-24T01:57:39;10.60;99.90
52030;DHT22;38043;53.224;6.580;2023-04-24T02:00:05;10.00;99.90
52030;DHT22;38043;53.224;6.580;2023-04-24T02:02:32;10.00;99.90
52030;DHT22;38043;53.224;6.580;2023-04-24T02:04:58;10.00;99.90
52030;DHT22;38043;53.224;6.580;2023-04-24T02:07:23;10.00;99.90
52030;DHT22;38043;53.224;6.580;2023-04-24T02:09:49;10.00;99.90
52030;DHT22;38043;53.224;6.580;2023-04-24T02:12:15;10.00;99.90
52030;DHT22;38043;53.224;6.580;2023-04-24T02:14:40;10.00;99.90
52030;DHT22;38043;53.224;6.580;2023-04-24T02:17:07;10.00;99.90
52030;DHT22;38043;53.224;6.580;2023-04-24T02:19:33;10.00;99.90
52030;DHT22;38043;53.224;6.580;2023-04-24T02:21:58;9.90;99.90
52030;DHT22;38043;53.224;6.580;2023-04-24T02:24:24;9.90;99.90
52030;DHT22;38043;53.224;6.580;2023-04-24T02:26:49;9.90;99.90
52030;DHT22;38043;53.224;6.580;2023-04-24T02:29:15;9.90;99.90
52030;DHT22;38043;53.224;6.580;2023-04-24T02:31:41;9.90;99.90
52030;DHT22;38043;53.224;6.580;2023-04-24T02:34:06;9.90;99.90
52030;DHT22;38043;53.224;6.580;2023-04-24T02:36:32;9.90;99.90
52030;DHT22;38043;53.224;6.580;2023-04-24T02:38:57;9.90;99.90
52030;DHT22;38043;53.224;6.580;2023-04-24T02:41:23;9.90;99.90
52030;DHT22;38043;53.224;6.580;2023-04-24T02:43:48;9.90;99.90
52030;DHT22;38043;53.224;6.580;2023-04-24T02:46:14;9.90;99.90
52030;DHT22;38043;53.224;6.580;2023-04-24T02:48:40;9.90;99.90
52030;DHT22;38043;53.224;6.580;2023-04-24T02:51:05;9.90;99.90
52030;DHT22;38043;53.224;6.580;2023-04-24T02:53:32;9.90;99.90
52030;DHT22;38043;53.224;6.580;2023-04-24T02:55:57;10.00;99.90
52030;DHT22;38043;53.224;6.580;2023-04-24T02:58:23;10.00;99.90
52030;DHT22;38043;53.224;6.580;2023-04-24T03:00:49;10.00;99.90
52030;DHT22;38043;53.224;6.580;2023-04-24T03:03:18;10.00;99.90
52030;DHT22;38043;53.224;6.580;2023-04-24T03:05:43;10.00;99.90
52030;DHT22;38043;53.224;6.580;2023-04-24T03:08:09;10.00;99.90
52030;DHT22;38043;53.224;6.580;2023-04-24T03:10:35;10.00;99.90
52030;DHT22;38043;53.224;6.580;2023-04-24T03:13:01;10.00;99.90
52030;DHT22;38043;53.224;6.580;2023-04-24T03:15:26;10.00;99.90
52030;DHT22;38043;53.224;6.580;2023-04-24T03:17:52;9.90;99.90
52030;DHT22;38043;53.224;6.580;2023-04-24T03:20:17;10.00;99.90
52030;DHT22;38043;53.224;6.580;2023-04-24T03:22:43;10.00;99.90
52030;DHT22;38043;53.224;6.580;2023-04-24T03:25:09;10.00;99.90
52030;DHT22;38043;53.224;6.580;2023-04-24T03:27:34;10.00;99.90
52030;DHT22;38043;53.224;6.580;2023-04-24T03:30:00;10.00;99.90
52030;DHT22;38043;53.224;6.580;2023-04-24T03:32:26;10.10;99.90
52030;DHT22;38043;53.224;6.580;2023-04-24T03:34:51;10.10;99.90
52030;DHT22;38043;53.224;6.580;2023-04-24T03:37:17;10.00;99.90
52030;DHT22;38043;53.224;6.580;2023-04-24T03:39:43;10.10;99.90
52030;DHT22;38043;53.224;6.580;2023-04-24T03:42:08;10.00;99.90
52030;DHT22;38043;53.224;6.580;2023-04-24T03:44:34;10.10;99.90
52030;DHT22;38043;53.224;6.580;2023-04-24T03:47:00;10.10;99.90
52030;DHT22;38043;53.224;6.580;2023-04-24T03:49:25;10.10;99.90
52030;DHT22;38043;53.224;6.580;2023-04-24T03:51:51;10.10;99.90
52030;DHT22;38043;53.224;6.580;2023-04-24T03:54:17;10.00;99.90
52030;DHT22;38043;53.224;6.580;2023-04-24T03:56:43;10.10;99.90
52030;DHT22;38043;53.224;6.580;2023-04-24T03:59:08;10.10;99.90
52030;DHT22;38043;53.224;6.580;2023-04-24T04:01:34;10.00;99.90
52030;DHT22;38043;53.224;6.580;2023-04-24T04:04:02;10.10;99.90
52030;DHT22;38043;53.224;6.580;2023-04-24T04:06:28;10.10;99.90
52030;DHT22;38043;53.224;6.580;2023-04-24T04:08:53;10.00;99.90
52030;DHT22;38043;53.224;6.580;2023-04-24T04:11:19;10.10;99.90
52030;DHT22;38043;53.224;6.580;2023-04-24T04:13:45;10.10;99.90
52030;DHT22;38043;53.224;6.580;2023-04-24T04:16:13;10.10;99.90
52030;DHT22;38043;53.224;6.580;2023-04-24T04:18:38;10.10;99.90
52030;DHT22;38043;53.224;6.580;2023-04-24T04:21:04;10.10;99.90
52030;DHT22;38043;53.224;6.580;2023-04-24T04:23:30;10.10;99.90
52030;DHT22;38043;53.224;6.580;2023-04-24T04:25:55;10.10;99.90
52030;DHT22;38043;53.224;6.580;2023-04-24T04:28:21;10.00;99.90
52030;DHT22;38043;53.224;6.580;2023-04-24T04:30:46;10.10;99.90
52030;DHT22;38043;53.224;6.580;2023-04-24T04:33:12;10.00;99.90
52030;DHT22;38043;53.224;6.580;2023-04-24T04:35:38;10.00;99.90
52030;DHT22;38043;53.224;6.580;2023-04-24T04:38:03;10.00;99.90
52030;DHT22;38043;53.224;6.580;2023-04-24T04:40:30;10.00;99.90
52030;DHT22;38043;53.224;6.580;2023-04-24T04:42:55;10.00;99.90
52030;DHT22;38043;53.224;6.580;2023-04-24T04:45:21;10.00;99.90
52030;DHT22;38043;53.224;6.580;2023-04-24T04:47:46;10.00;99.90
52030;DHT22;38043;53.224;6.580;2023-04-24T04:50:12;10.00;99.90
52030;DHT22;38043;53.224;6.580;2023-04-24T04:52:39;10.00;99.90
52030;DHT22;38043;53.224;6.580;2023-04-24T04:55:05;10.00;99.90
52030;DHT22;38043;53.224;6.580;2023-04-24T04:57:30;10.00;99.90
52030;DHT22;38043;53.224;6.580;2023-04-24T04:59:56;10.00;99.90
52030;DHT22;38043;53.224;6.580;2023-04-24T05:02:22;10.00;99.90
52030;DHT22;38043;53.224;6.580;2023-04-24T05:04:47;10.00;99.90
52030;DHT22;38043;53.224;6.580;2023-04-24T05:07:13;10.00;99.90
52030;DHT22;38043;53.224;6.580;2023-04-24T05:09:38;10.00;99.90
52030;DHT22;38043;53.224;6.580;2023-04-24T05:12:04;10.00;99.90
52030;DHT22;38043;53.224;6.580;2023-04-24T05:14:29;10.00;99.90
52030;DHT22;38043;53.224;6.580;2023-04-24T05:16:55;10.00;99.90
52030;DHT22;38043;53.224;6.580;2023-04-24T05:19:21;10.00;99.90
52030;DHT22;38043;53.224;6.580;2023-04-24T05:21:47;10.00;99.90
52030;DHT22;38043;53.224;6.580;2023-04-24T05:24:13;10.00;99.90
52030;DHT22;38043;53.224;6.580;2023-04-24T05:26:39;10.00;99.90
52030;DHT22;38043;53.224;6.580;2023-04-24T05:29:05;10.10;99.90
52030;DHT22;38043;53.224;6.580;2023-04-24T05:31:31;10.00;99.90
52030;DHT22;38043;53.224;6.580;2023-04-24T05:33:57;10.00;99.90
52030;DHT22;38043;53.224;6.580;2023-04-24T05:36:23;10.00;99.90
52030;DHT22;38043;53.224;6.580;2023-04-24T05:38:48;10.10;99.90
52030;DHT22;38043;53.224;6.580;2023-04-24T05:41:14;10.10;99.90
52030;DHT22;38043;53.224;6.580;2023-04-24T05:43:40;10.10;99.90
52030;DHT22;38043;53.224;6.580;2023-04-24T05:46:05;10.10;99.90
52030;DHT22;38043;53.224;6.580;2023-04-24T05:48:31;10.20;99.90
52030;DHT22;38043;53.224;6.580;2023-04-24T05:50:58;10.10;99.90
52030;DHT22;38043;53.224;6.580;2023-04-24T05:53:23;10.10;99.90
52030;DHT22;38043;53.224;6.580;2023-04-24T05:55:50;10.10;99.90
52030;DHT22;38043;53.224;6.580;2023-04-24T05:58:16;10.00;99.90
52030;DHT22;38043;53.224;6.580;2023-04-24T06:00:41;10.10;99.90
52030;DHT22;38043;53.224;6.580;2023-04-24T06:03:08;10.10;99.90
52030;DHT22;38043;53.224;6.580;2023-04-24T06:05:34;10.10;99.90
52030;DHT22;38043;53.224;6.580;2023-04-24T06:08:00;10.10;99.90
52030;DHT22;38043;53.224;6.580;2023-04-24T06:10:25;10.00;99.90
52030;DHT22;38043;53.224;6.580;2023-04-24T06:12:51;10.00;99.90
52030;DHT22;38043;53.224;6.580;2023-04-24T06:15:17;10.00;99.90
52030;DHT22;38043;53.224;6.580;2023-04-24T06:17:42;10.00;99.90
52030;DHT22;38043;53.224;6.580;2023-04-24T06:20:08;9.90;99.90
52030;DHT22;38043;53.224;6.580;2023-04-24T06:22:36;9.90;99.90
52030;DHT22;38043;53.224;6.580;2023-04-24T06:25:01;9.90;99.90
52030;DHT22;38043;53.224;6.580;2023-04-24T06:27:27;9.90;99.90
52030;DHT22;38043;53.224;6.580;2023-04-24T06:29:52;9.90;99.90
52030;DHT22;38043;53.224;6.580;2023-04-24T06:32:23;9.90;99.90
52030;DHT22;38043;53.224;6.580;2023-04-24T06:34:53;9.90;99.90
52030;DHT22;38043;53.224;6.580;2023-04-24T06:37:18;9.90;99.90
52030;DHT22;38043;53.224;6.580;2023-04-24T06:39:44;9.90;99.90
52030;DHT22;38043;53.224;6.580;2023-04-24T06:42:10;9.90;99.90
52030;DHT22;38043;53.224;6.580;2023-04-24T06:44:35;9.90;99.90
52030;DHT22;38043;53.224;6.580;2023-04-24T06:47:06;9.90;99.90
52030;DHT22;38043;53.224;6.580;2023-04-24T06:49:35;9.90;99.90
52030;DHT22;38043;53.224;6.580;2023-04-24T06:52:01;9.90;99.90
52030;DHT22;38043;53.224;6.580;2023-04-24T06:54:26;9.90;99.90
52030;DHT22;38043;53.224;6.580;2023-04-24T06:56:52;9.90;99.90
52030;DHT22;38043;53.224;6.580;2023-04-24T06:59:17;9.80;99.90
52030;DHT22;38043;53.224;6.580;2023-04-24T07:01:43;9.90;99.90
52030;DHT22;38043;53.224;6.580;2023-04-24T07:04:08;10.00;99.90
52030;DHT22;38043;53.224;6.580;2023-04-24T07:06:34;9.90;99.90
52030;DHT22;38043;53.224;6.580;2023-04-24T07:09:01;9.90;99.90
52030;DHT22;38043;53.224;6.580;2023-04-24T07:11:26;9.90;99.90
52030;DHT22;38043;53.224;6.580;2023-04-24T07:13:54;9.90;99.90
52030;DHT22;38043;53.224;6.580;2023-04-24T07:16:20;9.90;99.90
52030;DHT22;38043;53.224;6.580;2023-04-24T07:18:46;9.90;99.90
52030;DHT22;38043;53.224;6.580;2023-04-24T07:21:11;9.70;99.90
52030;DHT22;38043;53.224;6.580;2023-04-24T07:23:37;9.80;99.90
52030;DHT22;38043;53.224;6.580;2023-04-24T07:26:03;9.80;99.90
52030;DHT22;38043;53.224;6.580;2023-04-24T07:28:29;9.80;99.90
52030;DHT22;38043;53.224;6.580;2023-04-24T07:30:58;9.80;99.90
52030;DHT22;38043;53.224;6.580;2023-04-24T07:33:25;9.70;99.90
52030;DHT22;38043;53.224;6.580;2023-04-24T07:35:51;9.70;99.90
52030;DHT22;38043;53.224;6.580;2023-04-24T07:38:17;9.80;99.90
52030;DHT22;38043;53.224;6.580;2023-04-24T07:40:45;9.60;99.90
52030;DHT22;38043;53.224;6.580;2023-04-24T07:43:11;9.60;99.90
52030;DHT22;38043;53.224;6.580;2023-04-24T07:45:36;9.60;99.90
52030;DHT22;38043;53.224;6.580;2023-04-24T07:48:05;9.60;99.90
52030;DHT22;38043;53.224;6.580;2023-04-24T07:50:31;9.60;99.90
52030;DHT22;38043;53.224;6.580;2023-04-24T07:52:57;9.60;99.90
52030;DHT22;38043;53.224;6.580;2023-04-24T07:55:22;9.70;99.90
52030;DHT22;38043;53.224;6.580;2023-04-24T07:57:48;9.70;99.90
52030;DHT22;38043;53.224;6.580;2023-04-24T08:00:14;9.90;99.90
52030;DHT22;38043;53.224;6.580;2023-04-24T08:02:39;9.60;99.90
52030;DHT22;38043;53.224;6.580;2023-04-24T08:05:05;9.60;99.90
52030;DHT22;38043;53.224;6.580;2023-04-24T08:07:31;9.60;99.90
52030;DHT22;38043;53.224;6.580;2023-04-24T08:09:56;9.60;99.90
52030;DHT22;38043;53.224;6.580;2023-04-24T08:12:22;9.50;99.90
52030;DHT22;38043;53.224;6.580;2023-04-24T08:14:47;9.50;99.90
52030;DHT22;38043;53.224;6.580;2023-04-24T08:17:13;9.50;99.90
52030;DHT22;38043;53.224;6.580;2023-04-24T08:19:39;9.50;99.90
52030;DHT22;38043;53.224;6.580;2023-04-24T08:22:08;9.50;99.90
52030;DHT22;38043;53.224;6.580;2023-04-24T08:24:33;9.40;99.90
52030;DHT22;38043;53.224;6.580;2023-04-24T08:26:59;9.40;99.90
52030;DHT22;38043;53.224;6.580;2023-04-24T08:29:25;9.60;99.90
52030;DHT22;38043;53.224;6.580;2023-04-24T08:31:51;9.50;99.90
52030;DHT22;38043;53.224;6.580;2023-04-24T08:34:19;9.40;99.90
52030;DHT22;38043;53.224;6.580;2023-04-24T08:36:45;9.40;99.90
52030;DHT22;38043;53.224;6.580;2023-04-24T08:39:10;9.50;99.90
52030;DHT22;38043;53.224;6.580;2023-04-24T08:41:36;9.40;99.90
52030;DHT22;38043;53.224;6.580;2023-04-24T08:44:03;9.40;99.90
52030;DHT22;38043;53.224;6.580;2023-04-24T08:46:29;9.30;99.90
52030;DHT22;38043;53.224;6.580;2023-04-24T08:48:55;9.30;99.90
52030;DHT22;38043;53.224;6.580;2023-04-24T08:51:21;9.30;99.90
52030;DHT22;38043;53.224;6.580;2023-04-24T08:53:47;9.30;99.90
52030;DHT22;38043;53.224;6.580;2023-04-24T08:56:13;9.10;99.90
52030;DHT22;38043;53.224;6.580;2023-04-24T08:58:39;9.20;99.90
52030;DHT22;38043;53.224;6.580;2023-04-24T09:01:06;9.10;99.90
52030;DHT22;38043;53.224;6.580;2023-04-24T09:03:33;9.00;99.90
52030;DHT22;38043;53.224;6.580;2023-04-24T09:05:58;9.00;99.90
52030;DHT22;38043;53.224;6.580;2023-04-24T09:08:24;9.00;99.90
52030;DHT22;38043;53.224;6.580;2023-04-24T09:10:50;9.00;99.90
52030;DHT22;38043;53.224;6.580;2023-04-24T09:13:15;8.90;99.90
52030;DHT22;38043;53.224;6.580;2023-04-24T09:15:41;8.80;99.90
52030;DHT22;38043;53.224;6.580;2023-04-24T09:18:07;8.80;99.90
52030;DHT22;38043;53.224;6.580;2023-04-24T09:20:33;8.80;99.90
52030;DHT22;38043;53.224;6.580;2023-04-24T09:23:00;8.80;99.90
52030;DHT22;38043;53.224;6.580;2023-04-24T09:25:32;8.80;99.90
52030;DHT22;38043;53.224;6.580;2023-04-24T09:28:06;8.80;99.90
52030;DHT22;38043;53.224;6.580;2023-04-24T09:30:32;8.80;99.90
52030;DHT22;38043;53.224;6.580;2023-04-24T09:33:10;8.80;99.90
52030;DHT22;38043;53.224;6.580;2023-04-24T09:35:36;8.80;99.90
52030;DHT22;38043;53.224;6.580;2023-04-24T09:38:01;8.90;99.90
52030;DHT22;38043;53.224;6.580;2023-04-24T09:40:27;8.90;99.90
52030;DHT22;38043;53.224;6.580;2023-04-24T09:42:53;8.90;99.90
52030;DHT22;38043;53.224;6.580;2023-04-24T09:45:19;9.00;99.90
52030;DHT22;38043;53.224;6.580;2023-04-24T09:47:45;9.00;99.90
52030;DHT22;38043;53.224;6.580;2023-04-24T09:52:39;9.00;99.90
52030;DHT22;38043;53.224;6.580;2023-04-24T09:55:10;8.90;99.90
52030;DHT22;38043;53.224;6.580;2023-04-24T09:57:35;8.80;99.90
52030;DHT22;38043;53.224;6.580;2023-04-24T10:00:01;8.90;99.90
52030;DHT22;38043;53.224;6.580;2023-04-24T10:02:28;8.90;99.90
52030;DHT22;38043;53.224;6.580;2023-04-24T10:04:57;9.00;99.90
52030;DHT22;38043;53.224;6.580;2023-04-24T10:07:28;9.10;99.90
52030;DHT22;38043;53.224;6.580;2023-04-24T10:09:53;9.20;99.90
52030;DHT22;38043;53.224;6.580;2023-04-24T10:12:20;9.30;99.90
52030;DHT22;38043;53.224;6.580;2023-04-24T10:14:46;9.40;99.90
52030;DHT22;38043;53.224;6.580;2023-04-24T10:17:12;9.50;99.90
52030;DHT22;38043;53.224;6.580;2023-04-24T10:19:39;9.60;99.90
52030;DHT22;38043;53.224;6.580;2023-04-24T10:22:05;9.70;99.90
52030;DHT22;38043;53.224;6.580;2023-04-24T10:24:31;9.80;99.90
52030;DHT22;38043;53.224;6.580;2023-04-24T10:26:58;10.00;99.90
52030;DHT22;38043;53.224;6.580;2023-04-24T10:29:24;10.00;99.90
52030;DHT22;38043;53.224;6.580;2023-04-24T10:31:50;10.10;99.90
52030;DHT22;38043;53.224;6.580;2023-04-24T10:34:16;10.20;99.90
52030;DHT22;38043;53.224;6.580;2023-04-24T10:36:46;10.30;99.90
52030;DHT22;38043;53.224;6.580;2023-04-24T10:39:13;10.40;99.90
52030;DHT22;38043;53.224;6.580;2023-04-24T10:41:41;10.50;99.90
52030;DHT22;38043;53.224;6.580;2023-04-24T10:44:13;10.60;99.90
52030;DHT22;38043;53.224;6.580;2023-04-24T10:46:42;10.70;99.90
52030;DHT22;38043;53.224;6.580;2023-04-24T10:49:08;10.80;99.90
52030;DHT22;38043;53.224;6.580;2023-04-24T10:51:50;10.90;99.90
52030;DHT22;38043;53.224;6.580;2023-04-24T10:57:25;10.80;99.90
52030;DHT22;38043;53.224;6.580;2023-04-24T10:59:49;11.40;99.90
52030;DHT22;38043;53.224;6.580;2023-04-24T11:02:15;10.50;99.90
52030;DHT22;38043;53.224;6.580;2023-04-24T11:04:40;10.60;99.90
52030;DHT22;38043;53.224;6.580;2023-04-24T11:07:09;10.60;99.90
52030;DHT22;38043;53.224;6.580;2023-04-24T11:09:34;10.60;99.90
52030;DHT22;38043;53.224;6.580;2023-04-24T11:12:05;10.50;99.90
52030;DHT22;38043;53.224;6.580;2023-04-24T11:17:36;10.60;99.90
52030;DHT22;38043;53.224;6.580;2023-04-24T11:20:09;10.50;99.90
52030;DHT22;38043;53.224;6.580;2023-04-24T11:22:36;10.40;99.90
52030;DHT22;38043;53.224;6.580;2023-04-24T11:25:02;10.30;99.90
52030;DHT22;38043;53.224;6.580;2023-04-24T11:27:32;10.20;99.90
52030;DHT22;38043;53.224;6.580;2023-04-24T11:30:03;10.10;99.90
52030;DHT22;38043;53.224;6.580;2023-04-24T11:35:08;10.30;99.90
52030;DHT22;38043;53.224;6.580;2023-04-24T11:37:35;10.20;99.90
52030;DHT22;38043;53.224;6.580;2023-04-24T11:40:01;10.20;99.90
52030;DHT22;38043;53.224;6.580;2023-04-24T11:42:27;10.00;99.90
52030;DHT22;38043;53.224;6.580;2023-04-24T11:44:53;10.00;99.90
52030;DHT22;38043;53.224;6.580;2023-04-24T11:47:30;10.00;99.90
52030;DHT22;38043;53.224;6.580;2023-04-24T11:49:57;10.00;99.90
52030;DHT22;38043;53.224;6.580;2023-04-24T11:52:23;10.20;99.90
52030;DHT22;38043;53.224;6.580;2023-04-24T11:54:51;10.10;99.90
52030;DHT22;38043;53.224;6.580;2023-04-24T11:57:20;10.10;99.90
52030;DHT22;38043;53.224;6.580;2023-04-24T11:59:46;10.20;99.90
52030;DHT22;38043;53.224;6.580;2023-04-24T12:02:20;10.00;99.90
52030;DHT22;38043;53.224;6.580;2023-04-24T12:04:46;10.00;99.90
52030;DHT22;38043;53.224;6.580;2023-04-24T12:07:11;10.00;99.90
52030;DHT22;38043;53.224;6.580;2023-04-24T12:09:56;10.00;99.90
52030;DHT22;38043;53.224;6.580;2023-04-24T12:12:23;9.90;99.90
52030;DHT22;38043;53.224;6.580;2023-04-24T12:14:59;9.80;99.90
52030;DHT22;38043;53.224;6.580;2023-04-24T12:17:26;9.60;99.90
52030;DHT22;38043;53.224;6.580;2023-04-24T12:19:52;9.60;99.90
52030;DHT22;38043;53.224;6.580;2023-04-24T12:22:18;9.60;99.90
52030;DHT22;38043;53.224;6.580;2023-04-24T12:24:57;9.70;99.90
52030;DHT22;38043;53.224;6.580;2023-04-24T12:27:23;9.80;99.90
52030;DHT22;38043;53.224;6.580;2023-04-24T12:29:52;10.00;99.90
52030;DHT22;38043;53.224;6.580;2023-04-24T12:32:18;10.00;99.90
52030;DHT22;38043;53.224;6.580;2023-04-24T12:34:44;10.10;99.90
52030;DHT22;38043;53.224;6.580;2023-04-24T12:37:12;10.10;99.90
52030;DHT22;38043;53.224;6.580;2023-04-24T12:39:38;10.20;99.90
52030;DHT22;38043;53.224;6.580;2023-04-24T12:42:03;10.40;99.90
52030;DHT22;38043;53.224;6.580;2023-04-24T12:44:33;10.40;99.90
52030;DHT22;38043;53.224;6.580;2023-04-24T12:47:00;10.50;99.90
52030;DHT22;38043;53.224;6.580;2023-04-24T12:49:25;10.50;99.90
52030;DHT22;38043;53.224;6.580;2023-04-24T12:51:51;10.50;99.90
52030;DHT22;38043;53.224;6.580;2023-04-24T12:54:16;10.50;99.90
52030;DHT22;38043;53.224;6.580;2023-04-24T12:56:42;10.40;99.90
52030;DHT22;38043;53.224;6.580;2023-04-24T12:59:08;10.40;99.90
52030;DHT22;38043;53.224;6.580;2023-04-24T13:01:33;10.30;99.90
52030;DHT22;38043;53.224;6.580;2023-04-24T13:03:59;10.20;99.90
52030;DHT22;38043;53.224;6.580;2023-04-24T13:06:24;10.10;99.90
52030;DHT22;38043;53.224;6.580;2023-04-24T13:08:51;9.90;99.90
52030;DHT22;38043;53.224;6.580;2023-04-24T13:11:17;9.80;99.90
52030;DHT22;38043;53.224;6.580;2023-04-24T13:13:43;9.70;99.90
52030;DHT22;38043;53.224;6.580;2023-04-24T13:16:09;9.60;99.90
52030;DHT22;38043;53.224;6.580;2023-04-24T13:18:34;9.60;99.90
52030;DHT22;38043;53.224;6.580;2023-04-24T13:21:00;9.60;99.90
52030;DHT22;38043;53.224;6.580;2023-04-24T13:23:26;9.40;99.90
52030;DHT22;38043;53.224;6.580;2023-04-24T13:25:51;9.40;99.90
52030;DHT22;38043;53.224;6.580;2023-04-24T13:28:17;9.40;99.90
52030;DHT22;38043;53.224;6.580;2023-04-24T13:30:43;9.40;99.90
52030;DHT22;38043;53.224;6.580;2023-04-24T13:33:08;9.40;99.90
52030;DHT22;38043;53.224;6.580;2023-04-24T13:35:34;9.40;99.90
52030;DHT22;38043;53.224;6.580;2023-04-24T13:37:59;9.50;99.90
52030;DHT22;38043;53.224;6.580;2023-04-24T13:40:26;9.50;99.90
52030;DHT22;38043;53.224;6.580;2023-04-24T13:42:52;9.60;99.90
52030;DHT22;38043;53.224;6.580;2023-04-24T13:45:18;9.70;99.90
52030;DHT22;38043;53.224;6.580;2023-04-24T13:47:43;9.80;99.90
52030;DHT22;38043;53.224;6.580;2023-04-24T13:50:11;9.80;99.90
52030;DHT22;38043;53.224;6.580;2023-04-24T13:52:37;9.90;99.90
52030;DHT22;38043;53.224;6.580;2023-04-24T13:55:03;10.00;99.90
52030;DHT22;38043;53.224;6.580;2023-04-24T13:57:28;10.00;99.90
52030;DHT22;38043;53.224;6.580;2023-04-24T13:59:56;9.90;99.90
52030;DHT22;38043;53.224;6.580;2023-04-24T14:02:26;9.80;99.90
52030;DHT22;38043;53.224;6.580;2023-04-24T14:04:52;9.70;99.90
52030;DHT22;38043;53.224;6.580;2023-04-24T14:07:17;9.70;99.90
52030;DHT22;38043;53.224;6.580;2023-04-24T14:09:43;9.70;99.90
52030;DHT22;38043;53.224;6.580;2023-04-24T14:12:08;9.70;99.90
52030;DHT22;38043;53.224;6.580;2023-04-24T14:14:34;9.60;99.90
52030;DHT22;38043;53.224;6.580;2023-04-24T14:17:00;9.50;99.90
52030;DHT22;38043;53.224;6.580;2023-04-24T14:19:25;9.50;99.90
52030;DHT22;38043;53.224;6.580;2023-04-24T14:21:51;9.50;99.90
52030;DHT22;38043;53.224;6.580;2023-04-24T14:24:16;9.50;99.90
52030;DHT22;38043;53.224;6.580;2023-04-24T14:26:42;9.50;99.90
52030;DHT22;38043;53.224;6.580;2023-04-24T14:29:07;9.50;99.90
52030;DHT22;38043;53.224;6.580;2023-04-24T14:31:33;9.50;99.90
52030;DHT22;38043;53.224;6.580;2023-04-24T14:33:58;9.30;99.90
52030;DHT22;38043;53.224;6.580;2023-04-24T14:36:25;9.40;99.90
52030;DHT22;38043;53.224;6.580;2023-04-24T14:38:50;9.30;99.90
52030;DHT22;38043;53.224;6.580;2023-04-24T14:41:16;9.30;99.90
52030;DHT22;38043;53.224;6.580;2023-04-24T14:43:41;9.40;99.90
52030;DHT22;38043;53.224;6.580;2023-04-24T14:46:07;9.30;99.90
52030;DHT22;38043;53.224;6.580;2023-04-24T14:48:32;9.30;99.90
52030;DHT22;38043;53.224;6.580;2023-04-24T14:50:58;9.40;99.90
52030;DHT22;38043;53.224;6.580;2023-04-24T14:53:23;9.40;99.90
52030;DHT22;38043;53.224;6.580;2023-04-24T14:55:49;9.40;99.90
52030;DHT22;38043;53.224;6.580;2023-04-24T14:58:15;9.50;99.90
52030;DHT22;38043;53.224;6.580;2023-04-24T15:00:40;9.60;99.90
52030;DHT22;38043;53.224;6.580;2023-04-24T15:03:06;9.40;99.90
52030;DHT22;38043;53.224;6.580;2023-04-24T15:05:32;9.40;99.90
52030;DHT22;38043;53.224;6.580;2023-04-24T15:07:58;9.40;99.90
52030;DHT22;38043;53.224;6.580;2023-04-24T15:10:23;9.30;99.90
52030;DHT22;38043;53.224;6.580;2023-04-24T15:12:50;9.20;99.90
52030;DHT22;38043;53.224;6.580;2023-04-24T15:15:16;9.20;99.90
52030;DHT22;38043;53.224;6.580;2023-04-24T15:17:42;9.20;99.90
52030;DHT22;38043;53.224;6.580;2023-04-24T15:20:07;9.30;99.90
52030;DHT22;38043;53.224;6.580;2023-04-24T15:22:33;9.30;99.90
52030;DHT22;38043;53.224;6.580;2023-04-24T15:24:59;9.20;99.90
52030;DHT22;38043;53.224;6.580;2023-04-24T15:27:24;9.20;99.90
52030;DHT22;38043;53.224;6.580;2023-04-24T15:29:50;9.20;99.90
52030;DHT22;38043;53.224;6.580;2023-04-24T15:32:16;9.20;99.90
52030;DHT22;38043;53.224;6.580;2023-04-24T15:34:41;9.20;99.90
52030;DHT22;38043;53.224;6.580;2023-04-24T15:37:07;9.30;99.90
52030;DHT22;38043;53.224;6.580;2023-04-24T15:39:33;9.30;99.90
52030;DHT22;38043;53.224;6.580;2023-04-24T15:41:59;9.40;99.90